Terminal Aerodrome Forecast
Issued by NWS

Home | Current Version | Previous Version | Text Only | Print | Product List | Glossary On
Versions: 1 2 3 4 5 6 7 8 9 10 11 12 13
000
FTUS45 KPSR 311700
TAFSDL
TAF
KSDL 311732Z 3118/0118 VRB04KT P6SM FEW150 BKN250
     FM311900 12007KT P6SM FEW150 SCT250
     FM010100 VRB04KT P6SM SCT250=

USA.gov is the U.S. government's official web portal to all federal, state and local government web resources and services.